This is the latest recevied weather packets stored in our database for station/object OM8AKX-4. If no packets are shown the sender has not sent any weather packets the latest 10 day(s).
| Time | Temp. | Humidity | Pressure | Rain* | Wind** | Luminosity | Snow |
|---|---|---|---|---|---|---|---|
| 1777969628 | 13.89° C | 42% | 875.7 hPa | - | - | - | - |
| 1777968728 | 13.89° C | 42% | 875.8 hPa | - | - | - | - |
| 1777967828 | 13.89° C | 41% | 875.8 hPa | - | - | - | - |
| 1777966928 | 13.89° C | 41% | 875.9 hPa | - | - | - | - |
| 1777966028 | 13.89° C | 40% | 875.9 hPa | - | - | - | - |
| 1777965128 | 13.89° C | 39% | 875.8 hPa | - | - | - | - |
| 1777964228 | 13.89° C | 40% | 875.8 hPa | - | - | - | - |
| 1777962428 | 14.44° C | 38% | 875.9 hPa | - | - | - | - |
| 1777961528 | 14.44° C | 37% | 875.7 hPa | - | - | - | - |
| 1777960628 | 15° C | 36% | 875.6 hPa | - | - | - | - |
| 1777959728 | 16.11° C | 34% | 875.6 hPa | - | - | - | - |
| 1777958828 | 17.22° C | 32% | 875.7 hPa | - | - | - | - |
| 1777957928 | 17.78° C | 32% | 875.6 hPa | - | - | - | - |
| 1777957028 | 18.33° C | 32% | 875.7 hPa | - | - | - | - |
| 1777956128 | 17.78° C | 32% | 875.6 hPa | - | - | - | - |
| 1777955228 | 16.67° C | 34% | 875.7 hPa | - | - | - | - |
| 1777954327 | 17.22° C | 32% | 875.7 hPa | - | - | - | - |
| 1777924626 | 10.56° C | 43% | 877.6 hPa | - | - | - | - |
| 1777923726 | 11.11° C | 42% | 877.6 hPa | - | - | - | - |
| 1777921927 | 11.11° C | 40% | 877.7 hPa | - | - | - | - |
| 1777919227 | 11.11° C | 40% | 877.5 hPa | - | - | - | - |
| 1777918327 | 11.11° C | 40% | 877.5 hPa | - | - | - | - |
| 1777917427 | 11.67° C | 40% | 877.5 hPa | - | - | - | - |
| 1777915626 | 12.22° C | 39% | 877.4 hPa | - | - | - | - |
| 1777914726 | 12.78° C | 38% | 877.4 hPa | - | - | - | - |
* Rain since midnight (hover to see other rain measurements)
** Current wind speed in m/s (hover to see current wind gust speed)